KPIT/PIT METAR and TAF weather

Enter ICAO airport designator
Station Type Date Time Source
KPIT METAR 2019/02/22 23:51 UTC NOAA

KPIT 222351Z 03004KT 10SM FEW150 OVC220 03/M04 A3037 RMK AO2 SLP304 T00331039 10056 20033 51002


Station Type Date Time Source
KPIT Decoded METAR 2019/02/22 23:51 UTC NOAA

GREATER PITTSBURGH INTERNATIONAL , PA, United States (KPIT) 40-29N 80-14W 357M
Feb 22, 2019 - 06:51 PM EST / 2019.02.22 2351 UTC
Wind: from the NNE (030 degrees) at 5 MPH (4 KT):0
Visibility: 10 mile(s):0
Sky conditions: overcast
Temperature: 37.9 F (3.3 C)
Dew Point: 25.0 F (-3.9 C)
Relative Humidity: 59%
Pressure (altimeter): 30.37 in. Hg (1028 hPa)
Pressure tendency: 0.01 inches (0.2 hPa) higher than three hours ago
ob: KPIT 222351Z 03004KT 10SM FEW150 OVC220 03/M04 A3037 RMK AO2 SLP304 T00331039 10056 20033 51002
cycle: 0

Station Type Date Time Source
KPIT TAF 2019/02/22 18:39 UTC NOAA

TAF KPIT 221737Z 2218/2324 35003KT P6SM OVC250
FM231400 12007KT P6SM VCSH OVC040
FM232100 12006KT 4SM -DZ OVC015


Example: see airport list